<?xml version="1.0" encoding="UTF-8" standalone="no" ?>
<gpx xmlns="http://www.topografix.com/GPX/1/1" xmlns:xsi="http://www.w3.org/2001/XMLSchema-instance" xsi:schemaLocation="http://www.topografix.com/GPX/1/1 http://www.topografix.com/GPX/1/1/gpx.xsd" version="1.1" creator="VisuGPX - https://www.visugpx.com">
  <metadata>
    <name>chatellier 26 km</name>
  </metadata>
  <trk>
    <name><![CDATA[chatellier 26 km_1]]></name>
    <trkseg>
      <trkpt lat="48.74298" lon="-0.58396">
        <ele>155.8</ele>
        <time>2009-09-06T08:21:27Z</time>
      </trkpt>
      <trkpt lat="48.7423" lon="-0.58546">
        <ele>179.4</ele>
        <time>2009-09-06T08:21:54Z</time>
      </trkpt>
      <trkpt lat="48.74213" lon="-0.58572">
        <ele>182.4</ele>
        <time>2009-09-06T08:21:59Z</time>
      </trkpt>
      <trkpt lat="48.74146" lon="-0.58657">
        <ele>190.4</ele>
        <time>2009-09-06T08:22:16Z</time>
      </trkpt>
      <trkpt lat="48.74096" lon="-0.58723">
        <ele>193.4</ele>
        <time>2009-09-06T08:22:29Z</time>
      </trkpt>
      <trkpt lat="48.74043" lon="-0.58789">
        <ele>196.2</ele>
        <time>2009-09-06T08:22:42Z</time>
      </trkpt>
      <trkpt lat="48.73925" lon="-0.59227">
        <ele>204.4</ele>
        <time>2009-09-06T08:23:48Z</time>
      </trkpt>
      <trkpt lat="48.73713" lon="-0.59706">
        <ele>206.8</ele>
        <time>2009-09-06T08:25:16Z</time>
      </trkpt>
      <trkpt lat="48.73636" lon="-0.59843">
        <ele>208.2</ele>
        <time>2009-09-06T08:25:42Z</time>
      </trkpt>
      <trkpt lat="48.73496" lon="-0.60043">
        <ele>210.6</ele>
        <time>2009-09-06T08:26:25Z</time>
      </trkpt>
      <trkpt lat="48.73342" lon="-0.60369">
        <ele>212.2</ele>
        <time>2009-09-06T08:27:25Z</time>
      </trkpt>
      <trkpt lat="48.73002" lon="-0.60972">
        <ele>217.8</ele>
        <time>2009-09-06T08:29:25Z</time>
      </trkpt>
      <trkpt lat="48.72734" lon="-0.61368">
        <ele>228</ele>
        <time>2009-09-06T08:31:17Z</time>
      </trkpt>
      <trkpt lat="48.72687" lon="-0.61419">
        <ele>229.8</ele>
        <time>2009-09-06T08:31:34Z</time>
      </trkpt>
      <trkpt lat="48.7257" lon="-0.61517">
        <ele>229.8</ele>
        <time>2009-09-06T08:32:12Z</time>
      </trkpt>
      <trkpt lat="48.72529" lon="-0.6145">
        <ele>228.4</ele>
        <time>2009-09-06T08:32:27Z</time>
      </trkpt>
      <trkpt lat="48.72311" lon="-0.61433">
        <ele>243.8</ele>
        <time>2009-09-06T08:33:45Z</time>
      </trkpt>
      <trkpt lat="48.72274" lon="-0.61434">
        <ele>245.2</ele>
        <time>2009-09-06T08:34:04Z</time>
      </trkpt>
      <trkpt lat="48.72143" lon="-0.61062">
        <ele>239</ele>
        <time>2009-09-06T08:35:19Z</time>
      </trkpt>
      <trkpt lat="48.72126" lon="-0.61064">
        <ele>239.6</ele>
        <time>2009-09-06T08:35:28Z</time>
      </trkpt>
      <trkpt lat="48.72033" lon="-0.61178">
        <ele>248.2</ele>
        <time>2009-09-06T08:36:16Z</time>
      </trkpt>
      <trkpt lat="48.71967" lon="-0.61246">
        <ele>252</ele>
        <time>2009-09-06T08:36:48Z</time>
      </trkpt>
      <trkpt lat="48.71902" lon="-0.61366">
        <ele>256.4</ele>
        <time>2009-09-06T08:37:37Z</time>
      </trkpt>
      <trkpt lat="48.7183" lon="-0.61422">
        <ele>257.2</ele>
        <time>2009-09-06T08:38:08Z</time>
      </trkpt>
      <trkpt lat="48.71643" lon="-0.61475">
        <ele>270.8</ele>
        <time>2009-09-06T08:39:33Z</time>
      </trkpt>
      <trkpt lat="48.7152" lon="-0.61454">
        <ele>274.6</ele>
        <time>2009-09-06T08:40:31Z</time>
      </trkpt>
      <trkpt lat="48.71257" lon="-0.61522">
        <ele>271.8</ele>
        <time>2009-09-06T08:42:12Z</time>
      </trkpt>
      <trkpt lat="48.71141" lon="-0.61555">
        <ele>264.4</ele>
        <time>2009-09-06T08:42:39Z</time>
      </trkpt>
      <trkpt lat="48.71119" lon="-0.61537">
        <ele>265.4</ele>
        <time>2009-09-06T08:42:46Z</time>
      </trkpt>
      <trkpt lat="48.71106" lon="-0.61484">
        <ele>267</ele>
        <time>2009-09-06T08:43:02Z</time>
      </trkpt>
      <trkpt lat="48.71078" lon="-0.61393">
        <ele>267</ele>
        <time>2009-09-06T08:43:27Z</time>
      </trkpt>
      <trkpt lat="48.70888" lon="-0.61501">
        <ele>262</ele>
        <time>2009-09-06T08:44:13Z</time>
      </trkpt>
      <trkpt lat="48.70714" lon="-0.61566">
        <ele>267</ele>
        <time>2009-09-06T08:45:14Z</time>
      </trkpt>
      <trkpt lat="48.70644" lon="-0.61593">
        <ele>264.4</ele>
        <time>2009-09-06T08:45:39Z</time>
      </trkpt>
      <trkpt lat="48.70578" lon="-0.61404">
        <ele>267.4</ele>
        <time>2009-09-06T08:46:42Z</time>
      </trkpt>
      <trkpt lat="48.70432" lon="-0.60942">
        <ele>266</ele>
        <time>2009-09-06T08:48:16Z</time>
      </trkpt>
      <trkpt lat="48.70141" lon="-0.61145">
        <ele>288</ele>
        <time>2009-09-06T08:50:11Z</time>
      </trkpt>
      <trkpt lat="48.70033" lon="-0.60826">
        <ele>282.8</ele>
        <time>2009-09-06T08:51:27Z</time>
      </trkpt>
      <trkpt lat="48.70001" lon="-0.60716">
        <ele>280.8</ele>
        <time>2009-09-06T08:51:56Z</time>
      </trkpt>
      <trkpt lat="48.70014" lon="-0.60694">
        <ele>279.4</ele>
        <time>2009-09-06T08:52:05Z</time>
      </trkpt>
      <trkpt lat="48.70285" lon="-0.60491">
        <ele>260.2</ele>
        <time>2009-09-06T08:52:53Z</time>
      </trkpt>
      <trkpt lat="48.70214" lon="-0.60245">
        <ele>265.4</ele>
        <time>2009-09-06T08:56:21Z</time>
      </trkpt>
      <trkpt lat="48.70148" lon="-0.60047">
        <ele>259.6</ele>
        <time>2009-09-06T08:57:15Z</time>
      </trkpt>
      <trkpt lat="48.70119" lon="-0.60135">
        <ele>263.6</ele>
        <time>2009-09-06T08:58:13Z</time>
      </trkpt>
      <trkpt lat="48.69911" lon="-0.60221">
        <ele>273.2</ele>
        <time>2009-09-06T09:00:09Z</time>
      </trkpt>
      <trkpt lat="48.69765" lon="-0.60329">
        <ele>287.6</ele>
        <time>2009-09-06T09:02:01Z</time>
      </trkpt>
      <trkpt lat="48.69676" lon="-0.60398">
        <ele>290</ele>
        <time>2009-09-06T09:02:56Z</time>
      </trkpt>
      <trkpt lat="48.69561" lon="-0.60479">
        <ele>289.4</ele>
        <time>2009-09-06T09:04:11Z</time>
      </trkpt>
      <trkpt lat="48.6895" lon="-0.60918">
        <ele>264.4</ele>
        <time>2009-09-06T09:07:43Z</time>
      </trkpt>
      <trkpt lat="48.68933" lon="-0.60911">
        <ele>265</ele>
        <time>2009-09-06T09:07:50Z</time>
      </trkpt>
      <trkpt lat="48.68921" lon="-0.60839">
        <ele>263.6</ele>
        <time>2009-09-06T09:08:07Z</time>
      </trkpt>
      <trkpt lat="48.68818" lon="-0.60704">
        <ele>261.6</ele>
        <time>2009-09-06T09:08:36Z</time>
      </trkpt>
      <trkpt lat="48.68548" lon="-0.60098">
        <ele>253.4</ele>
        <time>2009-09-06T09:10:09Z</time>
      </trkpt>
      <trkpt lat="48.68463" lon="-0.60162">
        <ele>244.8</ele>
        <time>2009-09-06T09:10:34Z</time>
      </trkpt>
      <trkpt lat="48.68442" lon="-0.60197">
        <ele>242.8</ele>
        <time>2009-09-06T09:10:44Z</time>
      </trkpt>
      <trkpt lat="48.68385" lon="-0.60258">
        <ele>233.8</ele>
        <time>2009-09-06T09:10:57Z</time>
      </trkpt>
      <trkpt lat="48.68288" lon="-0.60283">
        <ele>240</ele>
        <time>2009-09-06T09:11:36Z</time>
      </trkpt>
      <trkpt lat="48.67947" lon="-0.60509">
        <ele>224.6</ele>
        <time>2009-09-06T09:14:06Z</time>
      </trkpt>
      <trkpt lat="48.67862" lon="-0.60586">
        <ele>218.8</ele>
        <time>2009-09-06T09:15:57Z</time>
      </trkpt>
      <trkpt lat="48.67738" lon="-0.60583">
        <ele>223.6</ele>
        <time>2009-09-06T09:17:16Z</time>
      </trkpt>
      <trkpt lat="48.67658" lon="-0.60576">
        <ele>220.8</ele>
        <time>2009-09-06T09:17:59Z</time>
      </trkpt>
      <trkpt lat="48.67506" lon="-0.60645">
        <ele>223.2</ele>
        <time>2009-09-06T09:20:17Z</time>
      </trkpt>
      <trkpt lat="48.67417" lon="-0.60694">
        <ele>218.4</ele>
        <time>2009-09-06T09:21:01Z</time>
      </trkpt>
      <trkpt lat="48.67413" lon="-0.60733">
        <ele>218.8</ele>
        <time>2009-09-06T09:21:22Z</time>
      </trkpt>
      <trkpt lat="48.67411" lon="-0.60693">
        <ele>218.8</ele>
        <time>2009-09-06T09:22:13Z</time>
      </trkpt>
      <trkpt lat="48.67334" lon="-0.6053">
        <ele>214</ele>
        <time>2009-09-06T09:23:31Z</time>
      </trkpt>
      <trkpt lat="48.67245" lon="-0.60579">
        <ele>206.8</ele>
        <time>2009-09-06T09:24:04Z</time>
      </trkpt>
      <trkpt lat="48.6724" lon="-0.60443">
        <ele>204.4</ele>
        <time>2009-09-06T09:24:29Z</time>
      </trkpt>
      <trkpt lat="48.67293" lon="-0.60259">
        <ele>207.8</ele>
        <time>2009-09-06T09:25:19Z</time>
      </trkpt>
      <trkpt lat="48.67205" lon="-0.60061">
        <ele>223.2</ele>
        <time>2009-09-06T09:26:56Z</time>
      </trkpt>
      <trkpt lat="48.67191" lon="-0.60016">
        <ele>224.2</ele>
        <time>2009-09-06T09:27:14Z</time>
      </trkpt>
      <trkpt lat="48.67103" lon="-0.59738">
        <ele>224.2</ele>
        <time>2009-09-06T09:28:28Z</time>
      </trkpt>
      <trkpt lat="48.67191" lon="-0.59653">
        <ele>227.4</ele>
        <time>2009-09-06T09:29:24Z</time>
      </trkpt>
      <trkpt lat="48.67233" lon="-0.59579">
        <ele>229.8</ele>
        <time>2009-09-06T09:30:03Z</time>
      </trkpt>
      <trkpt lat="48.67254" lon="-0.59551">
        <ele>230.8</ele>
        <time>2009-09-06T09:30:19Z</time>
      </trkpt>
      <trkpt lat="48.67324" lon="-0.59466">
        <ele>232.8</ele>
        <time>2009-09-06T09:31:16Z</time>
      </trkpt>
      <trkpt lat="48.67305" lon="-0.5947">
        <ele>232.2</ele>
        <time>2009-09-06T09:31:31Z</time>
      </trkpt>
      <trkpt lat="48.67226" lon="-0.59345">
        <ele>235.2</ele>
        <time>2009-09-06T09:32:18Z</time>
      </trkpt>
      <trkpt lat="48.67152" lon="-0.59232">
        <ele>234.6</ele>
        <time>2009-09-06T09:32:56Z</time>
      </trkpt>
      <trkpt lat="48.67107" lon="-0.59187">
        <ele>234.2</ele>
        <time>2009-09-06T09:33:12Z</time>
      </trkpt>
      <trkpt lat="48.67029" lon="-0.59124">
        <ele>228</ele>
        <time>2009-09-06T09:33:35Z</time>
      </trkpt>
      <trkpt lat="48.66991" lon="-0.59143">
        <ele>228.4</ele>
        <time>2009-09-06T09:33:54Z</time>
      </trkpt>
      <trkpt lat="48.66924" lon="-0.59063">
        <ele>226.6</ele>
        <time>2009-09-06T09:34:18Z</time>
      </trkpt>
      <trkpt lat="48.66791" lon="-0.59001">
        <ele>224.2</ele>
        <time>2009-09-06T09:34:50Z</time>
      </trkpt>
      <trkpt lat="48.66764" lon="-0.58837">
        <ele>218.4</ele>
        <time>2009-09-06T09:35:22Z</time>
      </trkpt>
      <trkpt lat="48.66757" lon="-0.58861">
        <ele>218.8</ele>
        <time>2009-09-06T09:35:31Z</time>
      </trkpt>
      <trkpt lat="48.66732" lon="-0.58875">
        <ele>218.4</ele>
        <time>2009-09-06T09:35:45Z</time>
      </trkpt>
      <trkpt lat="48.66766" lon="-0.58853">
        <ele>218.4</ele>
        <time>2009-09-06T09:36:05Z</time>
      </trkpt>
      <trkpt lat="48.66757" lon="-0.58712">
        <ele>212.2</ele>
        <time>2009-09-06T09:36:59Z</time>
      </trkpt>
      <trkpt lat="48.66749" lon="-0.58665">
        <ele>207.8</ele>
        <time>2009-09-06T09:37:17Z</time>
      </trkpt>
      <trkpt lat="48.66709" lon="-0.58562">
        <ele>211.6</ele>
        <time>2009-09-06T09:37:59Z</time>
      </trkpt>
      <trkpt lat="48.66669" lon="-0.58507">
        <ele>215</ele>
        <time>2009-09-06T09:38:34Z</time>
      </trkpt>
      <trkpt lat="48.66649" lon="-0.58491">
        <ele>216</ele>
        <time>2009-09-06T09:38:48Z</time>
      </trkpt>
      <trkpt lat="48.666" lon="-0.58467">
        <ele>216.4</ele>
        <time>2009-09-06T09:39:17Z</time>
      </trkpt>
      <trkpt lat="48.66575" lon="-0.58445">
        <ele>215.4</ele>
        <time>2009-09-06T09:39:32Z</time>
      </trkpt>
      <trkpt lat="48.66577" lon="-0.5837">
        <ele>210.2</ele>
        <time>2009-09-06T09:39:44Z</time>
      </trkpt>
      <trkpt lat="48.6664" lon="-0.58318">
        <ele>204.8</ele>
        <time>2009-09-06T09:40:01Z</time>
      </trkpt>
      <trkpt lat="48.66624" lon="-0.58269">
        <ele>203</ele>
        <time>2009-09-06T09:40:10Z</time>
      </trkpt>
      <trkpt lat="48.66567" lon="-0.58182">
        <ele>204</ele>
        <time>2009-09-06T09:40:37Z</time>
      </trkpt>
      <trkpt lat="48.66546" lon="-0.58158">
        <ele>203.4</ele>
        <time>2009-09-06T09:40:48Z</time>
      </trkpt>
      <trkpt lat="48.6657" lon="-0.5812">
        <ele>199.2</ele>
        <time>2009-09-06T09:41:09Z</time>
      </trkpt>
      <trkpt lat="48.66534" lon="-0.58183">
        <ele>207.4</ele>
        <time>2009-09-06T09:44:16Z</time>
      </trkpt>
      <trkpt lat="48.66513" lon="-0.58207">
        <ele>207.8</ele>
        <time>2009-09-06T09:45:15Z</time>
      </trkpt>
      <trkpt lat="48.66545" lon="-0.58164">
        <ele>204.8</ele>
        <time>2009-09-06T09:45:42Z</time>
      </trkpt>
      <trkpt lat="48.66575" lon="-0.58196">
        <ele>204.8</ele>
        <time>2009-09-06T09:46:02Z</time>
      </trkpt>
      <trkpt lat="48.66585" lon="-0.58189">
        <ele>204.8</ele>
        <time>2009-09-06T09:46:08Z</time>
      </trkpt>
      <trkpt lat="48.66614" lon="-0.5815">
        <ele>201.6</ele>
        <time>2009-09-06T09:46:19Z</time>
      </trkpt>
      <trkpt lat="48.66616" lon="-0.58128">
        <ele>200.6</ele>
        <time>2009-09-06T09:46:27Z</time>
      </trkpt>
      <trkpt lat="48.66576" lon="-0.58057">
        <ele>194.4</ele>
        <time>2009-09-06T09:46:49Z</time>
      </trkpt>
      <trkpt lat="48.66511" lon="-0.58091">
        <ele>190</ele>
        <time>2009-09-06T09:47:11Z</time>
      </trkpt>
      <trkpt lat="48.66489" lon="-0.58063">
        <ele>188</ele>
        <time>2009-09-06T09:47:39Z</time>
      </trkpt>
      <trkpt lat="48.66488" lon="-0.58046">
        <ele>187.2</ele>
        <time>2009-09-06T09:47:48Z</time>
      </trkpt>
      <trkpt lat="48.66513" lon="-0.57995">
        <ele>187.2</ele>
        <time>2009-09-06T09:48:13Z</time>
      </trkpt>
      <trkpt lat="48.66556" lon="-0.58005">
        <ele>186.6</ele>
        <time>2009-09-06T09:48:35Z</time>
      </trkpt>
      <trkpt lat="48.6687" lon="-0.58212">
        <ele>190</ele>
        <time>2009-09-06T09:50:14Z</time>
      </trkpt>
      <trkpt lat="48.66959" lon="-0.5823">
        <ele>189</ele>
        <time>2009-09-06T09:50:38Z</time>
      </trkpt>
      <trkpt lat="48.67261" lon="-0.58208">
        <ele>189.6</ele>
        <time>2009-09-06T09:52:06Z</time>
      </trkpt>
      <trkpt lat="48.67428" lon="-0.58167">
        <ele>191</ele>
        <time>2009-09-06T09:52:59Z</time>
      </trkpt>
      <trkpt lat="48.67541" lon="-0.58108">
        <ele>191</ele>
        <time>2009-09-06T09:53:29Z</time>
      </trkpt>
      <trkpt lat="48.67651" lon="-0.58007">
        <ele>190</ele>
        <time>2009-09-06T09:53:55Z</time>
      </trkpt>
      <trkpt lat="48.67705" lon="-0.57928">
        <ele>191</ele>
        <time>2009-09-06T09:54:10Z</time>
      </trkpt>
      <trkpt lat="48.67774" lon="-0.57797">
        <ele>191</ele>
        <time>2009-09-06T09:54:33Z</time>
      </trkpt>
      <trkpt lat="48.67835" lon="-0.57632">
        <ele>193.4</ele>
        <time>2009-09-06T09:54:59Z</time>
      </trkpt>
      <trkpt lat="48.67935" lon="-0.57302">
        <ele>192.8</ele>
        <time>2009-09-06T09:55:46Z</time>
      </trkpt>
      <trkpt lat="48.6816" lon="-0.56832">
        <ele>196.2</ele>
        <time>2009-09-06T09:57:11Z</time>
      </trkpt>
      <trkpt lat="48.68184" lon="-0.56787">
        <ele>195.8</ele>
        <time>2009-09-06T09:57:23Z</time>
      </trkpt>
      <trkpt lat="48.68295" lon="-0.56616">
        <ele>196.2</ele>
        <time>2009-09-06T09:57:53Z</time>
      </trkpt>
      <trkpt lat="48.68636" lon="-0.56152">
        <ele>200</ele>
        <time>2009-09-06T09:59:12Z</time>
      </trkpt>
      <trkpt lat="48.68788" lon="-0.56044">
        <ele>202</ele>
        <time>2009-09-06T09:59:46Z</time>
      </trkpt>
      <trkpt lat="48.68991" lon="-0.55923">
        <ele>203</ele>
        <time>2009-09-06T10:00:26Z</time>
      </trkpt>
      <trkpt lat="48.70717" lon="-0.5485">
        <ele>207.4</ele>
        <time>2009-09-06T10:06:20Z</time>
      </trkpt>
      <trkpt lat="48.70877" lon="-0.5483">
        <ele>206.8</ele>
        <time>2009-09-06T10:07:02Z</time>
      </trkpt>
      <trkpt lat="48.71083" lon="-0.54881">
        <ele>208.8</ele>
        <time>2009-09-06T10:07:46Z</time>
      </trkpt>
      <trkpt lat="48.71253" lon="-0.54993">
        <ele>209.8</ele>
        <time>2009-09-06T10:08:26Z</time>
      </trkpt>
      <trkpt lat="48.71491" lon="-0.55197">
        <ele>213.6</ele>
        <time>2009-09-06T10:09:35Z</time>
      </trkpt>
      <trkpt lat="48.71578" lon="-0.55274">
        <ele>213.6</ele>
        <time>2009-09-06T10:09:57Z</time>
      </trkpt>
      <trkpt lat="48.71916" lon="-0.55552">
        <ele>209.2</ele>
        <time>2009-09-06T10:10:55Z</time>
      </trkpt>
      <trkpt lat="48.72055" lon="-0.55607">
        <ele>207.8</ele>
        <time>2009-09-06T10:11:14Z</time>
      </trkpt>
      <trkpt lat="48.72233" lon="-0.55569">
        <ele>207.4</ele>
        <time>2009-09-06T10:11:38Z</time>
      </trkpt>
      <trkpt lat="48.72463" lon="-0.55462">
        <ele>204.4</ele>
        <time>2009-09-06T10:12:17Z</time>
      </trkpt>
      <trkpt lat="48.72498" lon="-0.55415">
        <ele>203</ele>
        <time>2009-09-06T10:12:28Z</time>
      </trkpt>
      <trkpt lat="48.7256" lon="-0.55399">
        <ele>202.4</ele>
        <time>2009-09-06T10:12:38Z</time>
      </trkpt>
      <trkpt lat="48.72607" lon="-0.55368">
        <ele>200</ele>
        <time>2009-09-06T10:12:45Z</time>
      </trkpt>
      <trkpt lat="48.72676" lon="-0.55268">
        <ele>198.6</ele>
        <time>2009-09-06T10:12:58Z</time>
      </trkpt>
      <trkpt lat="48.72884" lon="-0.55144">
        <ele>191</ele>
        <time>2009-09-06T10:13:30Z</time>
      </trkpt>
      <trkpt lat="48.72908" lon="-0.55112">
        <ele>191.4</ele>
        <time>2009-09-06T10:13:35Z</time>
      </trkpt>
      <trkpt lat="48.72924" lon="-0.55119">
        <ele>192.4</ele>
        <time>2009-09-06T10:13:41Z</time>
      </trkpt>
      <trkpt lat="48.7295" lon="-0.55266">
        <ele>192.8</ele>
        <time>2009-09-06T10:14:07Z</time>
      </trkpt>
      <trkpt lat="48.72991" lon="-0.5533">
        <ele>191.4</ele>
        <time>2009-09-06T10:14:21Z</time>
      </trkpt>
      <trkpt lat="48.73128" lon="-0.55357">
        <ele>196.2</ele>
        <time>2009-09-06T10:14:57Z</time>
      </trkpt>
      <trkpt lat="48.73282" lon="-0.55457">
        <ele>196.2</ele>
        <time>2009-09-06T10:15:42Z</time>
      </trkpt>
      <trkpt lat="48.7341" lon="-0.55524">
        <ele>193.4</ele>
        <time>2009-09-06T10:16:13Z</time>
      </trkpt>
      <trkpt lat="48.73601" lon="-0.55665">
        <ele>192</ele>
        <time>2009-09-06T10:20:19Z</time>
      </trkpt>
      <trkpt lat="48.73709" lon="-0.55688">
        <ele>192.8</ele>
        <time>2009-09-06T10:20:51Z</time>
      </trkpt>
      <trkpt lat="48.73796" lon="-0.55764">
        <ele>193.8</ele>
        <time>2009-09-06T10:21:17Z</time>
      </trkpt>
      <trkpt lat="48.73832" lon="-0.55773">
        <ele>195.2</ele>
        <time>2009-09-06T10:21:30Z</time>
      </trkpt>
      <trkpt lat="48.73835" lon="-0.55774">
        <ele>195.2</ele>
        <time>2009-09-06T10:21:32Z</time>
      </trkpt>
      <trkpt lat="48.73858" lon="-0.55939">
        <ele>189.6</ele>
        <time>2009-09-06T10:21:56Z</time>
      </trkpt>
      <trkpt lat="48.73846" lon="-0.56095">
        <ele>188.6</ele>
        <time>2009-09-06T10:22:14Z</time>
      </trkpt>
      <trkpt lat="48.73865" lon="-0.56134">
        <ele>189.6</ele>
        <time>2009-09-06T10:22:21Z</time>
      </trkpt>
      <trkpt lat="48.73911" lon="-0.56146">
        <ele>189</ele>
        <time>2009-09-06T10:22:31Z</time>
      </trkpt>
      <trkpt lat="48.73976" lon="-0.56197">
        <ele>187.6</ele>
        <time>2009-09-06T10:22:45Z</time>
      </trkpt>
      <trkpt lat="48.74154" lon="-0.56252">
        <ele>187.2</ele>
        <time>2009-09-06T10:23:20Z</time>
      </trkpt>
      <trkpt lat="48.74231" lon="-0.56335">
        <ele>187.2</ele>
        <time>2009-09-06T10:23:39Z</time>
      </trkpt>
      <trkpt lat="48.74382" lon="-0.5652">
        <ele>188</ele>
        <time>2009-09-06T10:24:22Z</time>
      </trkpt>
      <trkpt lat="48.74446" lon="-0.56629">
        <ele>188.6</ele>
        <time>2009-09-06T10:24:43Z</time>
      </trkpt>
      <trkpt lat="48.74627" lon="-0.56874">
        <ele>186.6</ele>
        <time>2009-09-06T10:25:48Z</time>
      </trkpt>
      <trkpt lat="48.74686" lon="-0.57092">
        <ele>188</ele>
        <time>2009-09-06T10:26:36Z</time>
      </trkpt>
      <trkpt lat="48.74745" lon="-0.57031">
        <ele>187.6</ele>
        <time>2009-09-06T10:26:58Z</time>
      </trkpt>
      <trkpt lat="48.74764" lon="-0.57078">
        <ele>186.6</ele>
        <time>2009-09-06T10:27:09Z</time>
      </trkpt>
      <trkpt lat="48.74807" lon="-0.57118">
        <ele>187.6</ele>
        <time>2009-09-06T10:27:22Z</time>
      </trkpt>
      <trkpt lat="48.74805" lon="-0.57145">
        <ele>187.6</ele>
        <time>2009-09-06T10:27:28Z</time>
      </trkpt>
      <trkpt lat="48.74769" lon="-0.57233">
        <ele>187.2</ele>
        <time>2009-09-06T10:27:56Z</time>
      </trkpt>
      <trkpt lat="48.74775" lon="-0.57202">
        <ele>186.2</ele>
        <time>2009-09-06T10:28:26Z</time>
      </trkpt>
    </trkseg>
  </trk>
</gpx>